createdAt,value
2018-03-23T00:00:44.245Z,0.00
2018-03-23T00:01:44.255Z,0.00
2018-03-23T00:02:44.249Z,0.00
2018-03-23T00:03:44.270Z,0.00
2018-03-23T00:04:44.262Z,0.00
2018-03-23T00:05:44.265Z,0.00
2018-03-23T00:06:44.269Z,0.00
2018-03-23T00:07:44.272Z,0.00
2018-03-23T00:08:44.269Z,0.00
2018-03-23T00:09:44.293Z,0.00
2018-03-23T00:10:44.281Z,0.00
2018-03-23T00:11:44.293Z,0.00
2018-03-23T00:12:44.293Z,0.00
2018-03-23T00:13:44.293Z,0.00
2018-03-23T00:14:44.296Z,0.00
2018-03-23T00:15:44.309Z,0.00
2018-03-23T00:16:44.307Z,0.00
2018-03-23T00:17:44.324Z,0.00
2018-03-23T00:18:44.313Z,0.00
2018-03-23T00:19:44.320Z,0.00
2018-03-23T00:20:44.329Z,0.00
2018-03-23T00:21:44.330Z,0.00
2018-03-23T00:22:44.333Z,0.00
2018-03-23T00:23:44.342Z,0.00
2018-03-23T00:24:44.345Z,0.00
2018-03-23T00:25:44.345Z,0.00
2018-03-23T00:26:44.352Z,0.00
2018-03-23T00:27:44.352Z,0.00
2018-03-23T00:28:44.355Z,0.00
2018-03-23T00:29:44.356Z,0.00
2018-03-23T00:30:44.367Z,0.00
2018-03-23T00:31:44.369Z,0.00
2018-03-23T00:32:44.374Z,0.00
2018-03-23T00:33:44.380Z,0.00
2018-03-23T00:34:44.380Z,0.00
2018-03-23T00:35:44.380Z,0.00
2018-03-23T00:36:44.398Z,0.00
2018-03-23T00:37:44.394Z,0.00
2018-03-23T00:38:44.394Z,0.00
2018-03-23T00:39:44.404Z,0.00
2018-03-23T00:40:44.406Z,0.00
2018-03-23T00:41:44.412Z,0.00
2018-03-23T00:42:44.421Z,0.00
2018-03-23T00:43:44.418Z,0.00
2018-03-23T00:44:44.424Z,0.00
2018-03-23T00:45:44.426Z,0.00
2018-03-23T00:46:44.430Z,0.00
2018-03-23T00:47:44.434Z,0.00
2018-03-23T00:48:44.448Z,0.00
2018-03-23T00:49:44.446Z,0.00
2018-03-23T00:50:44.448Z,0.00
2018-03-23T00:51:44.448Z,0.00
2018-03-23T00:52:44.459Z,0.00
2018-03-23T00:53:44.460Z,0.00
2018-03-23T00:54:44.469Z,0.00
2018-03-23T00:55:44.469Z,0.00
2018-03-23T00:56:44.477Z,0.00
2018-03-23T00:57:44.477Z,0.00
2018-03-23T00:58:44.481Z,0.00
2018-03-23T00:59:44.487Z,0.00
2018-03-23T01:00:44.495Z,0.00
2018-03-23T01:01:44.495Z,0.00
2018-03-23T01:02:44.499Z,0.00
2018-03-23T01:03:44.503Z,0.00
2018-03-23T01:04:44.509Z,0.00
2018-03-23T01:05:44.522Z,0.00
2018-03-23T01:06:44.521Z,0.00
2018-03-23T01:07:44.518Z,0.00
2018-03-23T01:08:44.525Z,0.00
2018-03-23T01:09:44.525Z,0.00
2018-03-23T01:10:44.527Z,0.00
2018-03-23T01:11:44.534Z,0.00
2018-03-23T01:12:44.541Z,0.00
2018-03-23T01:13:44.544Z,0.00
2018-03-23T01:14:44.543Z,0.00
2018-03-23T01:15:44.548Z,0.00
2018-03-23T01:16:44.553Z,0.00
2018-03-23T01:17:44.559Z,0.00
2018-03-23T01:18:44.566Z,0.00
2018-03-23T01:19:44.566Z,0.00
2018-03-23T01:20:44.571Z,0.00
2018-03-23T01:21:44.577Z,0.00
2018-03-23T01:22:44.580Z,0.00
2018-03-23T01:23:44.586Z,0.00
2018-03-23T01:24:44.595Z,0.00
2018-03-23T01:25:44.592Z,0.00
2018-03-23T01:26:44.596Z,0.00
2018-03-23T01:27:44.598Z,0.00
2018-03-23T01:28:44.708Z,0.00
2018-03-23T01:29:44.608Z,0.00
2018-03-23T01:30:44.619Z,0.00
2018-03-23T01:31:44.614Z,0.00
2018-03-23T01:32:44.616Z,0.00
2018-03-23T01:33:44.622Z,0.00
2018-03-23T01:34:44.624Z,0.00
2018-03-23T01:35:44.629Z,0.00
2018-03-23T01:36:44.640Z,0.00
2018-03-23T01:37:44.641Z,0.00
2018-03-23T01:38:44.646Z,0.00
2018-03-23T01:39:44.647Z,0.00
2018-03-23T01:40:44.656Z,0.00
2018-03-23T01:41:44.659Z,0.00
2018-03-23T01:42:44.665Z,0.00
2018-03-23T01:43:44.665Z,0.00
2018-03-23T01:44:44.680Z,0.00
2018-03-23T01:45:44.673Z,0.00
2018-03-23T01:46:44.678Z,0.00
2018-03-23T01:47:44.682Z,0.00
2018-03-23T01:48:44.697Z,0.00
2018-03-23T01:49:44.694Z,0.00
2018-03-23T01:50:44.691Z,0.00
2018-03-23T01:51:44.694Z,0.00
2018-03-23T01:52:44.705Z,0.00
2018-03-23T01:53:44.704Z,0.00
2018-03-23T01:54:44.714Z,0.00
2018-03-23T01:55:44.708Z,0.00
2018-03-23T01:56:44.715Z,0.00
2018-03-23T01:57:44.721Z,0.00
2018-03-23T01:58:44.721Z,0.00
2018-03-23T01:59:44.727Z,0.00
2018-03-23T02:00:44.753Z,0.00
2018-03-23T02:01:44.741Z,0.00
2018-03-23T02:02:44.742Z,0.00
2018-03-23T02:03:44.744Z,0.00
2018-03-23T02:04:44.754Z,0.00
2018-03-23T02:05:44.758Z,0.00
2018-03-23T02:06:44.767Z,0.00
2018-03-23T02:07:44.765Z,0.00
2018-03-23T02:08:44.769Z,0.00
2018-03-23T02:09:44.783Z,0.00
2018-03-23T02:10:44.774Z,0.00
2018-03-23T02:11:44.776Z,0.00
2018-03-23T02:12:44.788Z,0.00
2018-03-23T02:13:44.789Z,0.00
2018-03-23T02:14:44.790Z,0.00
2018-03-23T02:15:44.806Z,0.00
2018-03-23T02:16:44.801Z,0.00
2018-03-23T02:17:44.806Z,0.00
2018-03-23T02:18:44.815Z,0.00
2018-03-23T02:19:44.810Z,0.00
2018-03-23T02:20:44.816Z,0.00
2018-03-23T02:21:44.822Z,0.00
2018-03-23T02:22:44.826Z,0.00
2018-03-23T02:23:44.826Z,0.00
2018-03-23T02:24:44.840Z,0.00
2018-03-23T02:25:44.845Z,0.00
2018-03-23T02:26:44.844Z,0.00
2018-03-23T02:27:44.846Z,0.00
2018-03-23T02:28:44.854Z,0.00
2018-03-23T02:29:44.859Z,0.00
2018-03-23T02:30:44.859Z,0.00
2018-03-23T02:31:44.862Z,0.00
2018-03-23T02:32:44.866Z,0.00
2018-03-23T02:33:44.872Z,0.00
2018-03-23T02:34:44.877Z,0.00
2018-03-23T02:35:44.878Z,0.00
2018-03-23T02:36:44.886Z,0.00
2018-03-23T02:37:44.894Z,0.00
2018-03-23T02:38:44.888Z,0.00
2018-03-23T02:39:44.896Z,0.00
2018-03-23T02:40:44.903Z,0.00
2018-03-23T02:41:44.908Z,0.00
2018-03-23T02:42:44.917Z,0.00
2018-03-23T02:43:44.923Z,0.00
2018-03-23T02:44:44.922Z,0.00
2018-03-23T02:45:44.930Z,0.00
2018-03-23T02:46:44.927Z,0.00
2018-03-23T02:47:44.929Z,0.00
2018-03-23T02:48:44.945Z,0.00
2018-03-23T02:49:44.942Z,0.00
2018-03-23T02:50:44.943Z,0.00
2018-03-23T02:51:44.954Z,0.00
2018-03-23T02:52:44.948Z,0.00
2018-03-23T02:53:44.954Z,0.00
2018-03-23T02:54:44.966Z,0.00
2018-03-23T02:55:44.962Z,0.00
2018-03-23T02:56:44.965Z,0.00
2018-03-23T02:57:44.971Z,0.00
2018-03-23T02:58:44.973Z,0.00
2018-03-23T02:59:44.980Z,0.00
2018-03-23T03:00:44.994Z,0.00
2018-03-23T03:01:44.988Z,0.00
2018-03-23T03:02:44.992Z,0.00
2018-03-23T03:03:44.997Z,0.00
2018-03-23T03:04:45.001Z,0.00
2018-03-23T03:05:45.012Z,0.00
2018-03-23T03:06:45.014Z,0.00
2018-03-23T03:07:45.017Z,0.00
2018-03-23T03:08:45.037Z,0.00
2018-03-23T03:09:45.021Z,0.00
2018-03-23T03:10:45.025Z,0.00
2018-03-23T03:11:45.027Z,0.00
2018-03-23T03:12:45.033Z,0.00
2018-03-23T03:13:45.045Z,0.00
2018-03-23T03:14:45.040Z,0.00
2018-03-23T03:15:45.044Z,0.00
2018-03-23T03:16:45.050Z,0.00
2018-03-23T03:17:45.061Z,0.00
2018-03-23T03:18:45.060Z,0.00
2018-03-23T03:19:45.062Z,0.00
2018-03-23T03:20:45.068Z,0.00
2018-03-23T03:21:45.071Z,0.00
2018-03-23T03:22:45.078Z,0.00
2018-03-23T03:23:45.080Z,0.00
2018-03-23T03:24:45.091Z,0.00
2018-03-23T03:25:45.092Z,0.00
2018-03-23T03:26:45.096Z,0.00
2018-03-23T03:27:45.099Z,0.00
2018-03-23T03:28:45.099Z,0.00
2018-03-23T03:29:45.105Z,0.00
2018-03-23T03:30:45.115Z,0.00
2018-03-23T03:31:45.112Z,0.00
2018-03-23T03:32:45.120Z,0.00
2018-03-23T03:33:45.119Z,0.00
2018-03-23T03:34:45.124Z,0.00
2018-03-23T03:35:45.128Z,0.00
2018-03-23T03:36:45.143Z,0.00
2018-03-23T03:37:45.142Z,0.00
2018-03-23T03:38:45.140Z,0.00
2018-03-23T03:39:45.152Z,0.00
2018-03-23T03:40:45.169Z,0.00
2018-03-23T03:41:45.157Z,0.00
2018-03-23T03:42:45.176Z,0.00
2018-03-23T03:43:45.165Z,0.00
2018-03-23T03:44:45.170Z,0.00
2018-03-23T03:45:45.176Z,0.00
2018-03-23T03:46:45.180Z,0.00
2018-03-23T03:47:45.181Z,0.00
2018-03-23T03:48:45.188Z,0.00
2018-03-23T03:49:45.210Z,0.00
2018-03-23T03:50:45.197Z,0.00
2018-03-23T03:51:45.196Z,0.00
2018-03-23T03:52:45.199Z,0.00
2018-03-23T03:53:45.207Z,0.00
2018-03-23T03:54:45.213Z,0.00
2018-03-23T03:55:45.212Z,0.00
2018-03-23T03:56:45.219Z,0.00
2018-03-23T03:57:45.224Z,0.00
2018-03-23T03:58:45.228Z,0.00
2018-03-23T03:59:45.229Z,0.00
2018-03-23T04:00:45.245Z,0.00
2018-03-23T04:01:45.281Z,0.00
2018-03-23T04:02:45.248Z,0.00
2018-03-23T04:03:45.251Z,0.00
2018-03-23T04:04:45.255Z,0.00
2018-03-23T04:05:45.266Z,0.00
2018-03-23T04:06:45.272Z,0.00
2018-03-23T04:07:45.267Z,0.00
2018-03-23T04:08:45.320Z,0.00
2018-03-23T04:09:45.278Z,0.00
2018-03-23T04:10:45.283Z,0.00
2018-03-23T04:11:45.285Z,0.00
2018-03-23T04:12:45.297Z,0.00
2018-03-23T04:13:45.292Z,0.00
2018-03-23T04:14:45.294Z,0.00
2018-03-23T04:15:45.299Z,0.00
2018-03-23T04:16:45.303Z,0.00
2018-03-23T04:17:45.311Z,0.00
2018-03-23T04:18:45.317Z,0.00
2018-03-23T04:19:45.316Z,0.00
2018-03-23T04:20:45.326Z,0.00
2018-03-23T04:21:45.333Z,0.00
2018-03-23T04:22:45.335Z,0.00
2018-03-23T04:23:45.336Z,0.00
2018-03-23T04:24:45.346Z,0.00
2018-03-23T04:25:45.347Z,0.00
2018-03-23T04:26:45.352Z,0.00
2018-03-23T04:27:45.354Z,0.00
2018-03-23T04:28:45.362Z,0.00
2018-03-23T04:29:45.366Z,0.00
2018-03-23T04:30:45.376Z,0.00
2018-03-23T04:31:45.370Z,0.00
2018-03-23T04:32:45.371Z,0.00
2018-03-23T04:33:45.376Z,0.00
2018-03-23T04:34:45.378Z,0.00
2018-03-23T04:35:45.385Z,0.00
2018-03-23T04:36:45.397Z,0.00
2018-03-23T04:37:45.394Z,0.00
2018-03-23T04:38:45.403Z,0.00
2018-03-23T04:39:45.420Z,0.00
2018-03-23T04:40:45.411Z,0.00
2018-03-23T04:41:45.415Z,0.00
2018-03-23T04:42:45.424Z,0.00
2018-03-23T04:43:45.422Z,0.00
2018-03-23T04:44:45.426Z,0.00
2018-03-23T04:45:45.431Z,0.00
2018-03-23T04:46:45.437Z,0.00
2018-03-23T04:47:45.441Z,0.00
2018-03-23T04:48:45.455Z,0.00
2018-03-23T04:49:45.445Z,0.00
2018-03-23T04:50:45.455Z,0.00
2018-03-23T04:51:45.453Z,0.00
2018-03-23T04:52:45.459Z,0.00
2018-03-23T04:53:45.464Z,0.00
2018-03-23T04:54:45.477Z,0.00
2018-03-23T04:55:45.475Z,0.00
2018-03-23T04:56:45.474Z,0.00
2018-03-23T04:57:45.483Z,0.00
2018-03-23T04:58:45.488Z,0.00
2018-03-23T04:59:45.487Z,0.00
2018-03-23T05:00:45.500Z,0.00
2018-03-23T05:01:45.503Z,0.00
2018-03-23T05:02:45.504Z,0.00
2018-03-23T05:03:45.511Z,0.00
2018-03-23T05:04:45.515Z,0.00
2018-03-23T05:05:45.520Z,0.00
2018-03-23T05:06:45.527Z,0.00
2018-03-23T05:07:45.524Z,0.00
2018-03-23T05:08:45.528Z,0.00
2018-03-23T05:09:45.536Z,0.00
2018-03-23T05:10:45.544Z,0.00
2018-03-23T05:11:45.538Z,0.00
2018-03-23T05:12:45.549Z,0.00
2018-03-23T05:13:45.551Z,0.00
2018-03-23T05:14:45.551Z,0.00
2018-03-23T05:15:45.560Z,0.00
2018-03-23T05:16:45.566Z,0.00
2018-03-23T05:17:45.566Z,0.00
2018-03-23T05:18:45.578Z,0.00
2018-03-23T05:19:45.576Z,0.00
2018-03-23T05:20:45.583Z,0.00
2018-03-23T05:21:45.584Z,0.00
2018-03-23T05:22:45.592Z,0.00
2018-03-23T05:23:45.591Z,0.00
2018-03-23T05:24:45.636Z,0.00
2018-03-23T05:25:45.605Z,0.00
2018-03-23T05:26:45.612Z,0.00
2018-03-23T05:27:45.610Z,0.00
2018-03-23T05:28:45.619Z,0.00
2018-03-23T05:29:45.620Z,0.00
2018-03-23T05:30:45.635Z,0.00
2018-03-23T05:31:45.625Z,5.63
2018-03-23T05:32:46.976Z,5.63
2018-03-23T05:33:52.794Z,5.63
2018-03-23T05:35:49.649Z,5.63
2018-03-23T05:36:49.626Z,5.63
2018-03-23T05:38:53.638Z,5.63
2018-03-23T05:39:53.613Z,5.63
2018-03-23T05:41:57.597Z,5.63
2018-03-23T05:42:57.599Z,5.63
2018-03-23T05:45:01.623Z,11.25
2018-03-23T05:46:01.603Z,11.25
2018-03-23T05:48:05.611Z,11.25
2018-03-23T05:49:05.594Z,11.25
2018-03-23T05:51:09.594Z,11.25
2018-03-23T05:52:09.599Z,11.25
2018-03-23T05:54:13.620Z,11.25
2018-03-23T05:55:13.597Z,16.88
2018-03-23T05:57:17.601Z,16.88
2018-03-23T05:58:17.606Z,16.88
2018-03-23T06:00:21.621Z,16.88
2018-03-23T06:01:21.594Z,16.88
2018-03-23T06:02:21.599Z,22.50
2018-03-23T06:03:21.602Z,22.50
2018-03-23T06:04:21.610Z,22.50
2018-03-23T06:05:21.612Z,22.50
2018-03-23T06:06:21.615Z,22.50
2018-03-23T06:07:21.624Z,28.13
2018-03-23T06:08:21.624Z,28.13
2018-03-23T06:09:21.627Z,28.13
2018-03-23T06:10:21.634Z,28.13
2018-03-23T06:11:21.636Z,28.13
2018-03-23T06:12:21.640Z,28.13
2018-03-23T06:13:21.646Z,33.75
2018-03-23T06:14:21.651Z,33.75
2018-03-23T06:15:21.650Z,33.75
2018-03-23T06:16:21.656Z,28.13
2018-03-23T06:17:21.672Z,28.13
2018-03-23T06:18:21.666Z,28.13
2018-03-23T06:19:21.672Z,28.13
2018-03-23T06:20:21.674Z,28.13
2018-03-23T06:21:21.680Z,28.13
2018-03-23T06:22:21.685Z,33.75
2018-03-23T06:23:21.688Z,33.75
2018-03-23T06:24:21.694Z,33.75
2018-03-23T06:25:21.697Z,33.75
2018-03-23T06:26:21.708Z,39.38
2018-03-23T06:27:21.707Z,39.38
2018-03-23T06:28:21.715Z,39.38
2018-03-23T06:29:21.721Z,39.38
2018-03-23T06:30:21.720Z,45.00
2018-03-23T06:31:21.731Z,45.00
2018-03-23T06:32:21.728Z,45.00
2018-03-23T06:33:21.733Z,45.00
2018-03-23T06:34:21.737Z,50.63
2018-03-23T06:35:21.738Z,50.63
2018-03-23T06:36:21.746Z,50.63
2018-03-23T06:37:21.749Z,50.63
2018-03-23T06:38:21.754Z,50.63
2018-03-23T06:39:21.758Z,50.63
2018-03-23T06:40:21.764Z,50.63
2018-03-23T06:41:21.788Z,50.63
2018-03-23T06:42:21.772Z,56.25
2018-03-23T06:43:21.776Z,56.25
2018-03-23T06:44:21.784Z,56.25
2018-03-23T06:45:21.784Z,56.25
2018-03-23T06:46:21.792Z,56.25
2018-03-23T06:47:21.795Z,50.63
2018-03-23T06:48:21.798Z,45.00
2018-03-23T06:49:21.802Z,45.00
2018-03-23T06:50:21.809Z,50.63
2018-03-23T06:51:21.813Z,50.63
2018-03-23T06:52:21.818Z,56.25
2018-03-23T06:53:21.820Z,61.88
2018-03-23T06:54:21.825Z,56.25
2018-03-23T06:55:21.830Z,61.88
2018-03-23T06:56:21.834Z,56.25
2018-03-23T06:57:21.842Z,56.25
2018-03-23T06:58:21.842Z,50.63
2018-03-23T06:59:21.846Z,50.63
2018-03-23T07:00:21.851Z,45.00
2018-03-23T07:01:21.857Z,45.00
2018-03-23T07:02:21.859Z,50.63
2018-03-23T07:03:21.866Z,50.63
2018-03-23T07:04:21.875Z,50.63
2018-03-23T07:05:21.874Z,56.25
2018-03-23T07:06:21.879Z,61.88
2018-03-23T07:07:21.881Z,61.88
2018-03-23T07:08:21.891Z,67.50
2018-03-23T07:09:21.894Z,67.50
2018-03-23T07:10:21.895Z,61.88
2018-03-23T07:11:21.902Z,61.88
2018-03-23T07:12:21.906Z,67.50
2018-03-23T07:13:21.908Z,73.13
2018-03-23T07:14:21.915Z,73.13
2018-03-23T07:15:21.920Z,73.13
2018-03-23T07:16:21.998Z,73.13
2018-03-23T07:17:21.929Z,73.13
2018-03-23T07:18:21.932Z,73.13
2018-03-23T07:19:21.934Z,67.50
2018-03-23T07:20:21.939Z,73.13
2018-03-23T07:21:21.947Z,73.13
2018-03-23T07:22:21.950Z,73.13
2018-03-23T07:23:21.954Z,73.13
2018-03-23T07:24:21.961Z,78.75
2018-03-23T07:25:21.967Z,78.75
2018-03-23T07:26:21.971Z,78.75
2018-03-23T07:27:22.015Z,78.75
2018-03-23T07:28:21.976Z,78.75
2018-03-23T07:29:21.982Z,73.13
2018-03-23T07:30:21.985Z,78.75
2018-03-23T07:31:21.994Z,73.13
2018-03-23T07:32:21.998Z,73.13
2018-03-23T07:33:21.999Z,78.75
2018-03-23T07:34:22.008Z,84.38
2018-03-23T07:35:22.008Z,84.38
2018-03-23T07:37:22.037Z,78.75
2018-03-23T07:38:22.022Z,78.75
2018-03-23T07:39:22.025Z,78.75
2018-03-23T07:40:22.032Z,84.38
2018-03-23T07:41:22.033Z,90.00
2018-03-23T07:42:22.039Z,95.63
2018-03-23T07:43:22.043Z,95.63
2018-03-23T07:44:22.048Z,95.63
2018-03-23T07:45:22.053Z,90.00
2018-03-23T07:46:22.644Z,22.50
2018-03-23T07:47:22.063Z,90.00
2018-03-23T07:48:22.065Z,101.25
2018-03-23T07:49:22.073Z,118.13
2018-03-23T07:50:22.078Z,135.00
2018-03-23T07:51:22.081Z,146.25
2018-03-23T07:52:22.090Z,146.25
2018-03-23T07:53:22.094Z,146.25
2018-03-23T07:54:22.096Z,151.88
2018-03-23T07:55:22.101Z,146.25
2018-03-23T07:56:22.105Z,140.63
2018-03-23T07:57:22.134Z,146.25
2018-03-23T07:58:22.113Z,146.25
2018-03-23T07:59:22.118Z,151.88
2018-03-23T08:00:22.121Z,151.88
2018-03-23T08:01:22.129Z,151.88
2018-03-23T08:02:22.136Z,163.13
2018-03-23T08:03:22.139Z,174.38
2018-03-23T08:04:22.143Z,168.75
2018-03-23T08:05:22.153Z,163.13
2018-03-23T08:06:22.155Z,163.13
2018-03-23T08:07:22.160Z,180.00
2018-03-23T08:08:22.164Z,180.00
2018-03-23T08:09:22.173Z,185.63
2018-03-23T08:10:22.180Z,180.00
2018-03-23T08:11:22.180Z,185.63
2018-03-23T08:12:22.183Z,180.00
2018-03-23T08:13:22.189Z,174.38
2018-03-23T08:14:22.197Z,174.38
2018-03-23T08:15:22.198Z,180.00
2018-03-23T08:16:22.205Z,185.63
2018-03-23T08:17:22.211Z,191.25
2018-03-23T08:18:22.218Z,191.25
2018-03-23T08:19:22.220Z,191.25
2018-03-23T08:20:22.226Z,196.88
2018-03-23T08:21:22.233Z,202.50
2018-03-23T08:22:22.236Z,196.88
2018-03-23T08:23:22.243Z,196.88
2018-03-23T08:24:22.296Z,185.63
2018-03-23T08:25:22.252Z,180.00
2018-03-23T08:26:22.258Z,191.25
2018-03-23T08:27:22.264Z,202.50
2018-03-23T08:28:22.269Z,202.50
2018-03-23T08:29:22.278Z,208.13
2018-03-23T08:30:22.289Z,219.38
2018-03-23T08:31:22.286Z,213.75
2018-03-23T08:32:22.291Z,208.13
2018-03-23T08:33:22.297Z,191.25
2018-03-23T08:34:22.302Z,174.38
2018-03-23T08:35:22.307Z,168.75
2018-03-23T08:36:22.338Z,168.75
2018-03-23T08:37:22.799Z,168.75
2018-03-23T08:38:22.326Z,180.00
2018-03-23T08:39:22.328Z,174.38
2018-03-23T08:40:22.336Z,151.88
2018-03-23T08:41:22.343Z,146.25
2018-03-23T08:42:22.600Z,146.25
2018-03-23T08:43:22.357Z,174.38
2018-03-23T08:44:22.382Z,174.38
2018-03-23T08:45:22.364Z,180.00
2018-03-23T08:46:22.372Z,191.25
2018-03-23T08:47:22.375Z,185.63
2018-03-23T08:48:22.430Z,174.38
2018-03-23T08:49:22.386Z,180.00
2018-03-23T08:50:22.392Z,157.50
2018-03-23T08:51:22.398Z,163.13
2018-03-23T08:52:22.404Z,151.88
2018-03-23T08:53:22.412Z,168.75
2018-03-23T08:54:22.415Z,180.00
2018-03-23T08:55:22.422Z,174.38
2018-03-23T08:56:22.429Z,168.75
2018-03-23T08:57:22.434Z,191.25
2018-03-23T08:58:22.439Z,225.00
2018-03-23T08:59:22.443Z,270.00
2018-03-23T09:00:22.449Z,258.75
2018-03-23T09:01:22.455Z,258.75
2018-03-23T09:02:22.461Z,219.38
2018-03-23T09:03:22.470Z,191.25
2018-03-23T09:04:22.479Z,174.38
2018-03-23T09:05:22.477Z,168.75
2018-03-23T09:06:22.483Z,174.38
2018-03-23T09:07:22.487Z,180.00
2018-03-23T09:08:22.498Z,180.00
2018-03-23T09:09:22.502Z,174.38
2018-03-23T09:10:22.510Z,168.75
2018-03-23T09:11:22.512Z,180.00
2018-03-23T09:12:22.518Z,174.38
2018-03-23T09:13:22.527Z,185.63
2018-03-23T09:14:22.532Z,174.38
2018-03-23T09:15:22.588Z,174.38
2018-03-23T09:16:22.543Z,168.75
2018-03-23T09:17:22.548Z,191.25
2018-03-23T09:18:22.559Z,180.00
2018-03-23T09:19:22.558Z,180.00
2018-03-23T09:20:22.570Z,168.75
2018-03-23T09:21:22.575Z,163.13
2018-03-23T09:22:22.578Z,163.13
2018-03-23T09:23:22.587Z,151.88
2018-03-23T09:24:22.590Z,163.13
2018-03-23T09:25:22.597Z,168.75
2018-03-23T09:26:22.601Z,196.88
2018-03-23T09:27:22.606Z,185.63
2018-03-23T09:28:22.612Z,163.13
2018-03-23T09:29:22.619Z,157.50
2018-03-23T09:30:22.623Z,146.25
2018-03-23T09:31:22.630Z,146.25
2018-03-23T09:32:22.637Z,157.50
2018-03-23T09:33:22.649Z,151.88
2018-03-23T09:34:22.648Z,146.25
2018-03-23T09:35:22.658Z,140.63
2018-03-23T09:36:22.660Z,135.00
2018-03-23T09:37:22.664Z,129.38
2018-03-23T09:38:22.672Z,140.63
2018-03-23T09:39:22.678Z,140.63
2018-03-23T09:40:22.683Z,140.63
2018-03-23T09:41:22.687Z,146.25
2018-03-23T09:42:22.699Z,157.50
2018-03-23T09:43:22.705Z,163.13
2018-03-23T09:44:22.719Z,168.75
2018-03-23T09:45:22.713Z,163.13
2018-03-23T09:46:22.717Z,168.75
2018-03-23T09:47:22.724Z,196.88
2018-03-23T09:48:22.731Z,225.00
2018-03-23T09:49:22.740Z,219.38
2018-03-23T09:50:22.782Z,213.75
2018-03-23T09:51:22.752Z,196.88
2018-03-23T09:52:22.752Z,163.13
2018-03-23T09:53:22.759Z,180.00
2018-03-23T09:54:22.772Z,219.38
2018-03-23T09:55:22.769Z,247.50
2018-03-23T09:56:22.776Z,230.63
2018-03-23T09:57:22.784Z,213.75
2018-03-23T09:58:22.787Z,185.63
2018-03-23T09:59:22.799Z,174.38
2018-03-23T10:00:22.799Z,185.63
2018-03-23T10:01:22.805Z,219.38
2018-03-23T10:02:22.813Z,253.13
2018-03-23T10:03:22.819Z,275.63
2018-03-23T10:04:22.826Z,275.63
2018-03-23T10:05:22.889Z,258.75
2018-03-23T10:06:22.840Z,264.38
2018-03-23T10:07:22.842Z,270.00
2018-03-23T10:08:22.855Z,258.75
2018-03-23T10:09:22.856Z,258.75
2018-03-23T10:10:22.862Z,281.25
2018-03-23T10:11:22.866Z,264.38
2018-03-23T10:12:22.878Z,225.00
2018-03-23T10:13:22.881Z,208.13
2018-03-23T10:14:22.888Z,208.13
2018-03-23T10:15:22.899Z,196.88
2018-03-23T10:16:22.900Z,208.13
2018-03-23T10:17:22.917Z,213.75
2018-03-23T10:18:22.913Z,225.00
2018-03-23T10:19:22.921Z,236.25
2018-03-23T10:20:22.925Z,247.50
2018-03-23T10:21:23.124Z,241.88
2018-03-23T10:22:22.937Z,230.63
2018-03-23T10:23:22.944Z,264.38
2018-03-23T10:24:22.952Z,309.38
2018-03-23T10:25:22.956Z,365.63
2018-03-23T10:26:23.001Z,343.13
2018-03-23T10:27:22.969Z,337.50
2018-03-23T10:28:22.977Z,331.88
2018-03-23T10:29:22.981Z,331.88
2018-03-23T10:30:22.989Z,326.25
2018-03-23T10:31:22.994Z,298.13
2018-03-23T10:32:23.002Z,275.63
2018-03-23T10:33:23.009Z,258.75
2018-03-23T10:34:23.018Z,286.88
2018-03-23T10:35:23.048Z,286.88
2018-03-23T10:36:23.031Z,286.88
2018-03-23T10:37:23.040Z,320.63
2018-03-23T10:38:23.041Z,348.75
2018-03-23T10:39:23.048Z,360.00
2018-03-23T10:40:23.054Z,371.25
2018-03-23T10:41:23.061Z,376.88
2018-03-23T10:42:23.070Z,376.88
2018-03-23T10:43:23.074Z,360.00
2018-03-23T10:44:23.092Z,331.88
2018-03-23T10:45:23.088Z,348.75
2018-03-23T10:46:23.096Z,343.13
2018-03-23T10:47:23.103Z,337.50
2018-03-23T10:48:23.109Z,348.75
2018-03-23T10:49:23.114Z,309.38
2018-03-23T10:50:23.124Z,258.75
2018-03-23T10:51:23.141Z,253.13
2018-03-23T10:52:23.136Z,258.75
2018-03-23T10:53:23.150Z,281.25
2018-03-23T10:54:23.167Z,286.88
2018-03-23T10:55:23.156Z,236.25
2018-03-23T10:56:23.165Z,208.13
2018-03-23T10:57:23.176Z,196.88
2018-03-23T10:58:23.183Z,174.38
2018-03-23T10:59:23.187Z,157.50
2018-03-23T11:00:23.194Z,146.25
2018-03-23T11:01:23.203Z,140.63
2018-03-23T11:02:23.207Z,135.00
2018-03-23T11:03:23.215Z,129.38
2018-03-23T11:04:23.230Z,129.38
2018-03-23T11:05:23.228Z,135.00
2018-03-23T11:06:23.238Z,140.63
2018-03-23T11:07:23.254Z,146.25
2018-03-23T11:08:23.250Z,146.25
2018-03-23T11:09:23.256Z,140.63
2018-03-23T11:10:23.264Z,151.88
2018-03-23T11:11:23.270Z,180.00
2018-03-23T11:12:23.281Z,196.88
2018-03-23T11:13:23.285Z,219.38
2018-03-23T11:14:23.293Z,247.50
2018-03-23T11:15:23.298Z,241.88
2018-03-23T11:16:23.305Z,219.38
2018-03-23T11:17:23.315Z,236.25
2018-03-23T11:18:23.323Z,264.38
2018-03-23T11:19:23.325Z,270.00
2018-03-23T11:20:23.335Z,219.38
2018-03-23T11:21:23.339Z,191.25
2018-03-23T11:22:23.348Z,180.00
2018-03-23T11:23:23.354Z,180.00
2018-03-23T11:24:23.362Z,163.13
2018-03-23T11:25:23.368Z,163.13
2018-03-23T11:26:23.372Z,168.75
2018-03-23T11:27:23.382Z,168.75
2018-03-23T11:28:23.388Z,180.00
2018-03-23T11:29:23.392Z,236.25
2018-03-23T11:30:23.400Z,270.00
2018-03-23T11:31:23.407Z,281.25
2018-03-23T11:32:23.413Z,292.50
2018-03-23T11:33:23.424Z,343.13
2018-03-23T11:34:23.428Z,382.50
2018-03-23T11:35:23.431Z,388.13
2018-03-23T11:36:23.441Z,331.88
2018-03-23T11:37:23.445Z,281.25
2018-03-23T11:38:23.453Z,230.63
2018-03-23T11:39:23.470Z,213.75
2018-03-23T11:40:23.466Z,225.00
2018-03-23T11:41:23.473Z,230.63
2018-03-23T11:42:23.484Z,241.88
2018-03-23T11:43:23.487Z,281.25
2018-03-23T11:44:23.522Z,315.00
2018-03-23T11:45:23.502Z,303.75
2018-03-23T11:46:23.509Z,292.50
2018-03-23T11:47:23.515Z,270.00
2018-03-23T11:48:23.526Z,275.63
2018-03-23T11:49:23.531Z,292.50
2018-03-23T11:50:23.537Z,292.50
2018-03-23T11:51:23.543Z,292.50
2018-03-23T11:52:23.550Z,275.63
2018-03-23T11:53:23.555Z,270.00
2018-03-23T11:54:23.565Z,241.88
2018-03-23T11:55:23.572Z,219.38
2018-03-23T11:56:23.594Z,202.50
2018-03-23T11:57:23.587Z,191.25
2018-03-23T11:58:23.591Z,196.88
2018-03-23T11:59:23.601Z,202.50
2018-03-23T12:00:23.607Z,219.38
2018-03-23T12:01:23.612Z,225.00
2018-03-23T12:02:23.622Z,225.00
2018-03-23T12:03:23.626Z,230.63
2018-03-23T12:04:23.632Z,230.63
2018-03-23T12:05:23.649Z,247.50
2018-03-23T12:06:23.649Z,258.75
2018-03-23T12:07:23.656Z,275.63
2018-03-23T12:08:23.664Z,270.00
2018-03-23T12:09:23.672Z,253.13
2018-03-23T12:10:23.681Z,258.75
2018-03-23T12:11:23.686Z,241.88
2018-03-23T12:12:23.691Z,219.38
2018-03-23T12:13:23.699Z,213.75
2018-03-23T12:14:23.753Z,213.75
2018-03-23T12:15:23.713Z,213.75
2018-03-23T12:16:23.720Z,202.50
2018-03-23T12:17:23.727Z,196.88
2018-03-23T12:18:23.736Z,208.13
2018-03-23T12:19:23.742Z,208.13
2018-03-23T12:20:23.747Z,208.13
2018-03-23T12:21:23.938Z,196.88
2018-03-23T12:22:23.763Z,191.25
2018-03-23T12:23:23.770Z,191.25
2018-03-23T12:24:23.777Z,196.88
2018-03-23T12:25:24.316Z,202.50
2018-03-23T12:26:23.900Z,208.13
2018-03-23T12:27:23.797Z,202.50
2018-03-23T12:28:23.809Z,202.50
2018-03-23T12:29:23.812Z,196.88
2018-03-23T12:30:23.819Z,196.88
2018-03-23T12:31:23.828Z,191.25
2018-03-23T12:32:23.834Z,180.00
2018-03-23T12:33:23.845Z,180.00
2018-03-23T12:34:23.848Z,174.38
2018-03-23T12:35:23.855Z,174.38
2018-03-23T12:36:23.863Z,168.75
2018-03-23T12:37:23.869Z,174.38
2018-03-23T12:38:23.879Z,180.00
2018-03-23T12:39:23.883Z,180.00
2018-03-23T12:40:23.891Z,168.75
2018-03-23T12:41:23.899Z,163.13
2018-03-23T12:42:23.907Z,168.75
2018-03-23T12:43:23.912Z,168.75
2018-03-23T12:44:23.918Z,168.75
2018-03-23T12:45:23.928Z,157.50
2018-03-23T12:46:23.933Z,151.88
2018-03-23T12:47:23.942Z,146.25
2018-03-23T12:48:23.948Z,140.63
2018-03-23T12:49:23.959Z,140.63
2018-03-23T12:50:23.965Z,146.25
2018-03-23T12:51:23.969Z,146.25
2018-03-23T12:52:23.976Z,140.63
2018-03-23T12:53:23.983Z,135.00
2018-03-23T12:54:23.991Z,129.38
2018-03-23T12:55:24.000Z,123.75
2018-03-23T12:56:24.006Z,106.88
2018-03-23T12:57:24.010Z,90.00
2018-03-23T12:58:24.016Z,84.38
2018-03-23T12:59:24.028Z,84.38
2018-03-23T13:00:24.032Z,90.00
2018-03-23T13:01:24.040Z,95.63
2018-03-23T13:02:24.045Z,101.25
2018-03-23T13:03:24.052Z,106.88
2018-03-23T13:04:24.060Z,112.50